Cromwell, IA

1:58 AM CDT on July 11, 2014 (GMT -0500)
Creston Municipal (KCSQ) Elev 1293 ft | 41.02 °N, 94.36 °W | Change Station

Current weather conditions updated 23 minutes ago

Clear
Clear
64 °F
Feels Like 64 °F
N
7
Wind Variable Wind from SSE

Today is forecast to be Much Warmer than yesterday.

Today
High -- | Low -- °F
--% Chance of Precip.
Yesterday
High -- | Low -- °F
Precip. -- in
5:55 AM 8:50 PM
Waxing Gibbous, 98% visible
Pressure 30.08 in
Visibility 10.0 miles
Clouds Clear
Dew Point 61 °F
Humidity 88%
Rainfall 0.00 in
Snow Depth Not available.
UV 0 out of 12
Pollen 4.30 out of 12
Air Quality Not available.
Flu Activity Sporadic
METAR KCSQ 110635Z AUTO 16006KT 10SM CLR 18/16 A3008 RMK AO2

More Conditions Fewer Conditions

Pressure 30.08 in
Visibility 10.0 miles
Clouds Clear
Dew Point 61 °F
Humidity 88%
Rainfall 0.00 in
Snow Depth Not available.
UV 0 out of 12
Pollen 4.30 out of 12
Air Quality Not available.
Flu Activity Sporadic
METAR KCSQ 110635Z AUTO 16006KT 10SM CLR 18/16 A3008 RMK AO2

More Conditions Fewer Conditions

10-Day Weather Forecast

Almanac

Astronomy

Jul. 11, 2014 Rise Set
Actual Time 5:55 AM CDT 8:50 PM CDT
Civil Twilight 5:22 AM CDT 9:23 PM CDT
Nautical Twilight 4:40 AM CDT 10:05 PM CDT
Astronomical Twilight 3:51 AM CDT 10:53 PM CDT
Moon 8:00 PM CDT 5:08 AM CDT
Length of Visible Light 16h 01m
Length of Day
14h 55m
Tomorrow will be 1m 14s shorter.
Waxing Gibbous, 98% of the Moon is Illuminated
Today
Waxing Gibbous
Jul 12
Full
Jul 18
Last Quarter
Jul 26
New
Aug 3
First Quarter

Today's Extremes

State Highs State Lows

Community

WunderPhotos

Upload Photos

1,732,407 photos uploaded!

Nearby

Snow Depth

Station Depth Elevation
No new snow has been reported.

Earthquake Activity

City Distance Mag. Time & Date
No recent earthquake activity has been reported nearby.
Minimum magnitude displayed is 2.5.

Coastal Water Temperatures

Place Temperature
No Stations Reporting

Nearby Weather Stations

Station Location Temp. Dew Point Humidity Wind Precip. Elev Updated Type
Out Here In The Wild, Creston, IA 66.7 °F 63 °F 88% SE  at  6.0 mph 0.00 in / hr 1269 ft 1:56 AM CDT Normal

Show More Stations Show Fewer Stations